FDC210 YBHI-YBHI
Flight info
| Callsign | FDC210 |
|---|---|
| Flight time | N/A |
| Altitude | 13000 |
| Route | DCT YEXZ DCT |
| Aircraft | BE20/L-SDFGRWY/C |
Departure
| Time | 2026-04-12 07:56 |
|---|---|
| Airport | Broken Hill Airport (YBHI) |
Arrival
| Time | N/A |
|---|---|
| Airport | Broken Hill Airport (YBHI) |
| Time | Latitude | Longitude | Altitude | Speed | Heading |
|---|---|---|---|---|---|
| 2026-04-12 07:47 | -31.99950 | 141.46912 | 947 ft | 0 kts | 256° |
| 2026-04-12 07:52 | -31.99952 | 141.46906 | 941 ft | 3 kts | 250° |
| 2026-04-12 07:52 | -31.99990 | 141.46869 | 947 ft | 9 kts | 228° |
| 2026-04-12 07:52 | -32.00050 | 141.46872 | 947 ft | 9 kts | 124° |
| 2026-04-12 07:52 | -32.00043 | 141.46968 | 947 ft | 16 kts | 76° |
| 2026-04-12 07:53 | -32.00018 | 141.47116 | 947 ft | 16 kts | 100° |
| 2026-04-12 07:53 | -32.00109 | 141.47200 | 948 ft | 19 kts | 146° |
| 2026-04-12 07:53 | -32.00198 | 141.47290 | 952 ft | 14 kts | 101° |
| 2026-04-12 07:53 | -32.00139 | 141.47407 | 952 ft | 21 kts | 54° |
| 2026-04-12 07:54 | -32.00038 | 141.47581 | 952 ft | 30 kts | 56° |
| 2026-04-12 07:54 | -31.99904 | 141.47815 | 951 ft | 39 kts | 56° |
| 2026-04-12 07:54 | -31.99741 | 141.48099 | 950 ft | 42 kts | 56° |
| 2026-04-12 07:54 | -31.99632 | 141.48256 | 952 ft | 8 kts | 77° |
| 2026-04-12 07:55 | -31.99666 | 141.48229 | 952 ft | 11 kts | 235° |
| 2026-04-12 07:55 | -31.99795 | 141.48005 | 951 ft | 67 kts | 236° |
| 2026-04-12 07:55 | -32.00164 | 141.47379 | 1046 ft | 113 kts | 231° |
| 2026-04-12 07:55 | -32.00654 | 141.46523 | 1451 ft | 132 kts | 234° |
| 2026-04-12 07:56 | -32.01236 | 141.45647 | 2014 ft | 139 kts | 213° |
| 2026-04-12 07:56 | -32.02153 | 141.45404 | 2585 ft | 142 kts | 167° |
| 2026-04-12 07:56 | -32.02967 | 141.45959 | 3400 ft | 129 kts | 152° |
| 2026-04-12 07:56 | -32.03533 | 141.46831 | 3906 ft | 148 kts | 113° |
| 2026-04-12 07:57 | -32.03578 | 141.48188 | 4158 ft | 174 kts | 88° |
| 2026-04-12 07:57 | -32.03395 | 141.49547 | 4939 ft | 165 kts | 87° |
| 2026-04-12 07:57 | -32.03220 | 141.50893 | 5529 ft | 167 kts | 88° |
| 2026-04-12 07:57 | -32.03052 | 141.52237 | 6139 ft | 169 kts | 88° |
| 2026-04-12 07:58 | -32.02879 | 141.53612 | 6739 ft | 170 kts | 89° |
| 2026-04-12 07:58 | -32.02704 | 141.55005 | 7281 ft | 174 kts | 89° |
| 2026-04-12 07:58 | -32.02524 | 141.56422 | 7834 ft | 177 kts | 89° |
| 2026-04-12 07:58 | -32.02342 | 141.57868 | 8392 ft | 180 kts | 88° |
| 2026-04-12 07:59 | -32.02156 | 141.59336 | 8950 ft | 183 kts | 88° |
| 2026-04-12 07:59 | -32.01967 | 141.60831 | 9533 ft | 186 kts | 88° |
| 2026-04-12 07:59 | -32.01776 | 141.62333 | 10116 ft | 189 kts | 88° |
| 2026-04-12 07:59 | -32.01580 | 141.63880 | 10617 ft | 193 kts | 88° |
| 2026-04-12 08:00 | -32.01380 | 141.65456 | 11125 ft | 196 kts | 88° |
| 2026-04-12 08:00 | -32.01177 | 141.67048 | 11685 ft | 198 kts | 88° |
| 2026-04-12 08:00 | -32.00971 | 141.68664 | 12218 ft | 201 kts | 88° |
| 2026-04-12 08:00 | -32.00763 | 141.70295 | 12775 ft | 203 kts | 88° |
| 2026-04-12 08:01 | -32.00549 | 141.72016 | 13011 ft | 226 kts | 88° |
| 2026-04-12 08:01 | -32.00308 | 141.73947 | 13025 ft | 250 kts | 87° |
| 2026-04-12 08:01 | -32.00042 | 141.76013 | 13025 ft | 267 kts | 86° |
| 2026-04-12 08:01 | -31.99756 | 141.78217 | 13022 ft | 278 kts | 86° |
| 2026-04-12 08:02 | -31.99462 | 141.80496 | 13020 ft | 284 kts | 86° |
| 2026-04-12 08:02 | -31.99164 | 141.82816 | 13017 ft | 288 kts | 86° |
| 2026-04-12 08:02 | -31.98862 | 141.85162 | 13016 ft | 291 kts | 86° |
| 2026-04-12 08:02 | -31.98557 | 141.87523 | 13013 ft | 292 kts | 86° |
| 2026-04-12 08:03 | -31.98251 | 141.89893 | 13014 ft | 293 kts | 86° |
| 2026-04-12 08:03 | -31.97945 | 141.92264 | 13014 ft | 293 kts | 86° |
| 2026-04-12 08:03 | -31.97637 | 141.94642 | 13015 ft | 294 kts | 86° |
| 2026-04-12 08:03 | -31.97329 | 141.97016 | 13015 ft | 294 kts | 86° |
| 2026-04-12 08:04 | -31.97025 | 141.99361 | 13014 ft | 294 kts | 86° |
| 2026-04-12 08:04 | -31.96716 | 142.01738 | 13012 ft | 294 kts | 86° |
| 2026-04-12 08:04 | -31.96406 | 142.04117 | 13012 ft | 294 kts | 85° |
| 2026-04-12 08:04 | -31.96096 | 142.06499 | 13009 ft | 295 kts | 86° |
| 2026-04-12 08:05 | -31.95784 | 142.08885 | 13004 ft | 295 kts | 85° |
| 2026-04-12 08:05 | -31.95471 | 142.11271 | 13008 ft | 295 kts | 85° |
| 2026-04-12 08:05 | -31.95159 | 142.13655 | 13008 ft | 295 kts | 85° |
| 2026-04-12 08:05 | -31.94846 | 142.16044 | 13005 ft | 295 kts | 85° |
| 2026-04-12 08:06 | -31.94532 | 142.18431 | 13004 ft | 295 kts | 85° |
| 2026-04-12 08:06 | -31.94222 | 142.20787 | 13004 ft | 295 kts | 85° |
| 2026-04-12 08:06 | -31.93907 | 142.23179 | 13004 ft | 295 kts | 85° |
| 2026-04-12 08:06 | -31.93592 | 142.25565 | 13005 ft | 295 kts | 85° |
| 2026-04-12 08:07 | -31.93276 | 142.27956 | 13005 ft | 295 kts | 85° |
| 2026-04-12 08:07 | -31.92960 | 142.30346 | 13005 ft | 296 kts | 85° |
| 2026-04-12 08:07 | -31.92643 | 142.32736 | 13006 ft | 296 kts | 85° |
| 2026-04-12 08:07 | -31.92325 | 142.35126 | 13006 ft | 296 kts | 85° |
| 2026-04-12 08:08 | -31.92008 | 142.37515 | 12997 ft | 295 kts | 85° |
| 2026-04-12 08:08 | -31.91694 | 142.39869 | 12991 ft | 295 kts | 86° |
| 2026-04-12 08:08 | -31.91377 | 142.42249 | 12994 ft | 294 kts | 85° |
| 2026-04-12 08:08 | -31.91060 | 142.44623 | 12995 ft | 294 kts | 86° |
| 2026-04-12 08:09 | -31.90742 | 142.46999 | 12988 ft | 294 kts | 86° |
| 2026-04-12 08:09 | -31.90424 | 142.49375 | 12992 ft | 294 kts | 86° |
| 2026-04-12 08:09 | -31.90105 | 142.51751 | 12992 ft | 294 kts | 86° |
| 2026-04-12 08:09 | -31.89786 | 142.54124 | 13002 ft | 294 kts | 86° |
| 2026-04-12 08:10 | -31.89467 | 142.56500 | 13000 ft | 294 kts | 86° |
| 2026-04-12 08:10 | -31.89151 | 142.58849 | 13003 ft | 294 kts | 85° |
| 2026-04-12 08:10 | -31.88830 | 142.61225 | 13003 ft | 295 kts | 85° |
| 2026-04-12 08:10 | -31.88508 | 142.63607 | 13003 ft | 294 kts | 85° |
| 2026-04-12 08:11 | -31.88186 | 142.65983 | 13002 ft | 294 kts | 85° |
| 2026-04-12 08:11 | -31.87865 | 142.68358 | 12995 ft | 294 kts | 85° |
| 2026-04-12 08:11 | -31.87543 | 142.70730 | 12999 ft | 294 kts | 85° |
| 2026-04-12 08:11 | -31.87220 | 142.73106 | 12992 ft | 294 kts | 85° |
| 2026-04-12 08:12 | -31.86896 | 142.75484 | 13000 ft | 294 kts | 85° |
| 2026-04-12 08:12 | -31.86573 | 142.77859 | 12997 ft | 294 kts | 85° |
| 2026-04-12 08:12 | -31.86249 | 142.80232 | 12996 ft | 294 kts | 85° |
| 2026-04-12 08:12 | -31.85929 | 142.82578 | 12990 ft | 294 kts | 85° |
| 2026-04-12 08:13 | -31.85604 | 142.84948 | 12989 ft | 294 kts | 85° |
| 2026-04-12 08:13 | -31.85279 | 142.87316 | 12988 ft | 293 kts | 86° |
| 2026-04-12 08:13 | -31.84954 | 142.89688 | 12988 ft | 293 kts | 86° |
| 2026-04-12 08:13 | -31.84629 | 142.92054 | 12981 ft | 293 kts | 85° |
| 2026-04-12 08:14 | -31.84304 | 142.94415 | 12987 ft | 293 kts | 85° |
| 2026-04-12 08:14 | -31.83978 | 142.96777 | 12983 ft | 293 kts | 85° |
| 2026-04-12 08:14 | -31.83652 | 142.99142 | 12985 ft | 293 kts | 85° |
| 2026-04-12 08:14 | -31.83330 | 143.01470 | 12990 ft | 293 kts | 85° |
| 2026-04-12 08:15 | -31.83003 | 143.03833 | 12994 ft | 293 kts | 85° |
| 2026-04-12 08:15 | -31.82675 | 143.06199 | 12994 ft | 293 kts | 85° |
| 2026-04-12 08:15 | -31.82347 | 143.08566 | 12994 ft | 293 kts | 85° |
| 2026-04-12 08:15 | -31.82018 | 143.10931 | 12994 ft | 293 kts | 85° |
| 2026-04-12 08:16 | -31.81688 | 143.13295 | 12989 ft | 293 kts | 85° |
| 2026-04-12 08:16 | -31.81358 | 143.15665 | 12988 ft | 293 kts | 85° |
| 2026-04-12 08:16 | -31.81028 | 143.18028 | 12988 ft | 293 kts | 85° |
| 2026-04-12 08:16 | -31.80698 | 143.20393 | 12989 ft | 293 kts | 85° |
| 2026-04-12 08:17 | -31.80367 | 143.22759 | 12991 ft | 293 kts | 85° |
| 2026-04-12 08:17 | -31.80036 | 143.25121 | 12990 ft | 293 kts | 85° |
| 2026-04-12 08:17 | -31.79708 | 143.27455 | 12988 ft | 294 kts | 85° |
| 2026-04-12 08:17 | -31.79376 | 143.29820 | 12977 ft | 293 kts | 85° |
| 2026-04-12 08:18 | -31.79042 | 143.32186 | 12978 ft | 293 kts | 85° |
| 2026-04-12 08:18 | -31.78711 | 143.34541 | 12973 ft | 292 kts | 85° |
| 2026-04-12 08:18 | -31.78378 | 143.36894 | 12970 ft | 292 kts | 85° |
| 2026-04-12 08:18 | -31.78046 | 143.39248 | 12972 ft | 292 kts | 85° |
| 2026-04-12 08:19 | -31.77712 | 143.41606 | 12972 ft | 292 kts | 85° |
| 2026-04-12 08:19 | -31.77379 | 143.43956 | 12972 ft | 292 kts | 85° |
| 2026-04-12 08:19 | -31.77045 | 143.46312 | 12969 ft | 292 kts | 85° |
| 2026-04-12 08:19 | -31.76710 | 143.48667 | 12964 ft | 292 kts | 85° |
| 2026-04-12 08:20 | -31.76379 | 143.50990 | 12975 ft | 292 kts | 85° |
| 2026-04-12 08:20 | -31.76044 | 143.53344 | 12980 ft | 292 kts | 85° |
| 2026-04-12 08:20 | -31.75708 | 143.55699 | 12980 ft | 292 kts | 85° |
| 2026-04-12 08:20 | -31.75367 | 143.58098 | 12629 ft | 303 kts | 85° |
| 2026-04-12 08:21 | -31.75016 | 143.60571 | 12265 ft | 309 kts | 85° |
| 2026-04-12 08:21 | -31.74656 | 143.63066 | 11904 ft | 311 kts | 85° |
| 2026-04-12 08:21 | -31.74298 | 143.65536 | 11539 ft | 301 kts | 85° |
| 2026-04-12 08:21 | -31.73954 | 143.67924 | 11175 ft | 293 kts | 85° |
| 2026-04-12 08:22 | -31.73620 | 143.70260 | 10815 ft | 287 kts | 85° |
| 2026-04-12 08:22 | -31.73402 | 143.71777 | 10579 ft | 284 kts | 85° |
| 2026-04-12 08:22 | -31.72970 | 143.74774 | 10115 ft | 279 kts | 85° |
| 2026-04-12 08:22 | -31.72648 | 143.77006 | 9729 ft | 276 kts | 85° |
| 2026-04-12 08:23 | -31.72328 | 143.79215 | 9341 ft | 273 kts | 85° |
| 2026-04-12 08:23 | -31.72011 | 143.81403 | 8956 ft | 270 kts | 85° |
| 2026-04-12 08:23 | -31.71698 | 143.83566 | 8573 ft | 267 kts | 85° |
| 2026-04-12 08:23 | -31.71491 | 143.84989 | 8330 ft | 266 kts | 85° |
| 2026-04-12 08:24 | -31.71079 | 143.87831 | 7833 ft | 262 kts | 85° |
| 2026-04-12 08:24 | -31.70876 | 143.89224 | 7589 ft | 261 kts | 85° |
| 2026-04-12 08:24 | -31.70473 | 143.91984 | 7107 ft | 257 kts | 85° |
| 2026-04-12 08:24 | -31.70173 | 143.94047 | 6750 ft | 255 kts | 85° |
| 2026-04-12 08:25 | -31.69875 | 143.96088 | 6381 ft | 253 kts | 85° |
| 2026-04-12 08:25 | -31.69578 | 143.98118 | 5990 ft | 250 kts | 84° |
| 2026-04-12 08:25 | -31.69383 | 143.99449 | 5739 ft | 250 kts | 84° |
| 2026-04-12 08:25 | -31.69090 | 144.01454 | 5358 ft | 249 kts | 84° |
| 2026-04-12 08:26 | -31.68797 | 144.03448 | 4989 ft | 247 kts | 84° |
| 2026-04-12 08:26 | -31.68407 | 144.06104 | 4467 ft | 246 kts | 84° |
| 2026-04-12 08:26 | -31.68215 | 144.07411 | 4214 ft | 245 kts | 84° |
| 2026-04-12 08:26 | -31.67833 | 144.10010 | 3712 ft | 243 kts | 84° |
| 2026-04-12 08:27 | -31.67545 | 144.11961 | 3333 ft | 242 kts | 84° |
| 2026-04-12 08:27 | -31.67259 | 144.13901 | 2956 ft | 240 kts | 84° |
| 2026-04-12 08:27 | -31.66974 | 144.15829 | 2592 ft | 238 kts | 84° |
| 2026-04-12 08:27 | -31.66791 | 144.17071 | 2463 ft | 228 kts | 85° |
| 2026-04-12 08:28 | -31.66533 | 144.18851 | 2339 ft | 214 kts | 85° |
| 2026-04-12 08:28 | -31.66314 | 144.20540 | 2216 ft | 204 kts | 91° |
| 2026-04-12 08:28 | -31.66216 | 144.22707 | 2220 ft | 198 kts | 92° |
| 2026-04-12 08:28 | -31.66153 | 144.23793 | 2216 ft | 198 kts | 90° |
| 2026-04-12 08:29 | -31.66008 | 144.25414 | 2133 ft | 202 kts | 89° |
| 2026-04-12 08:29 | -31.66014 | 144.27507 | 1873 ft | 180 kts | 107° |
| 2026-04-12 08:29 | -31.66063 | 144.28473 | 1633 ft | 182 kts | 85° |
| 2026-04-12 08:29 | -31.65553 | 144.29690 | 1621 ft | 153 kts | 53° |
| 2026-04-12 08:30 | -31.64919 | 144.30600 | 1556 ft | 140 kts | 55° |
| 2026-04-12 08:30 | -31.64229 | 144.31451 | 1509 ft | 151 kts | 26° |
| 2026-04-12 08:30 | -31.63345 | 144.31461 | 1445 ft | 117 kts | 317° |
| 2026-04-12 08:30 | -31.62707 | 144.30656 | 1291 ft | 91 kts | 272° |
| 2026-04-12 08:31 | -31.62926 | 144.30029 | 1224 ft | 93 kts | 226° |
| 2026-04-12 08:31 | -31.63205 | 144.29638 | 1131 ft | 95 kts | 228° |
| 2026-04-12 08:31 | -31.63622 | 144.29038 | 968 ft | 93 kts | 227° |
| 2026-04-12 08:31 | -31.64014 | 144.28457 | 763 ft | 92 kts | 231° |
| 2026-04-12 08:32 | -31.64411 | 144.27879 | 655 ft | 88 kts | 226° |
| 2026-04-12 08:32 | -31.64798 | 144.27301 | 484 ft | 92 kts | 229° |
| 2026-04-12 08:32 | -31.65211 | 144.26692 | 292 ft | 97 kts | 228° |
| 2026-04-12 08:32 | -31.65591 | 144.26133 | 258 ft | 73 kts | 232° |
| 2026-04-12 08:33 | -31.65771 | 144.25857 | 259 ft | 14 kts | 232° |
| 2026-04-12 08:33 | -31.65822 | 144.25796 | 259 ft | 6 kts | 220° |
| 2026-04-12 08:33 | -31.65801 | 144.25807 | 259 ft | 7 kts | 50° |
| 2026-04-12 08:33 | -31.65756 | 144.25873 | 259 ft | 14 kts | 52° |
| 2026-04-12 08:34 | -31.65680 | 144.25991 | 258 ft | 21 kts | 52° |
| 2026-04-12 08:34 | -31.65581 | 144.26143 | 257 ft | 25 kts | 53° |
| 2026-04-12 08:34 | -31.65492 | 144.26272 | 258 ft | 13 kts | 52° |
| 2026-04-12 08:34 | -31.65442 | 144.26349 | 258 ft | 12 kts | 54° |
| 2026-04-12 08:35 | -31.65407 | 144.26406 | 259 ft | 5 kts | 52° |
| 2026-04-12 08:35 | -31.65378 | 144.26448 | 258 ft | 10 kts | 51° |
| 2026-04-12 08:35 | -31.65325 | 144.26526 | 259 ft | 14 kts | 51° |
| 2026-04-12 08:35 | -31.65255 | 144.26601 | 258 ft | 11 kts | 11° |
| 2026-04-12 08:36 | -31.65243 | 144.26591 | 260 ft | 0 kts | 161° |
| 2026-04-12 08:36 | -31.65244 | 144.26591 | 260 ft | 0 kts | 156° |